Time;durP1;ratioP1;P1;durP2;ratioP2;P2;SDS_P1;SDS_P2;PMS_P1;PMS_P2;Temp;Humidity;BMP_temperature;BMP_pressure;BME280_temperature;BME280_humidity;BME280_pressure;Samples;Min_cycle;Max_cycle;Signal;HPM_P1;HPM_P2
2023/05/02 00:01:50;;;;;;;19.65;14.73;;;6.80;99.90;;;;;;5074314;28;20020;-60
2023/05/02 00:04:17;;;;;;;16.23;13.57;;;6.80;99.90;;;;;;5078840;28;20111;-59
2023/05/02 00:06:45;;;;;;;15.00;13.35;;;6.80;99.90;;;;;;5077171;28;20039;-59
2023/05/02 00:09:11;;;;;;;13.98;12.70;;;6.80;99.90;;;;;;5076402;28;20035;-60
2023/05/02 00:11:36;;;;;;;14.15;12.93;;;6.80;99.90;;;;;;5076820;28;20028;-59
2023/05/02 00:14:02;;;;;;;15.85;13.27;;;6.80;99.90;;;;;;5048198;28;20078;-58
2023/05/02 00:16:28;;;;;;;17.15;13.68;;;6.80;99.90;;;;;;5070764;28;20508;-57
2023/05/02 00:18:53;;;;;;;14.20;12.70;;;6.80;99.90;;;;;;5070281;28;20029;-58
2023/05/02 00:21:19;;;;;;;14.90;13.40;;;6.80;99.90;;;;;;5068151;28;20033;-58
2023/05/02 00:23:45;;;;;;;14.02;12.73;;;6.70;99.90;;;;;;5070470;28;20164;-57
2023/05/02 00:26:10;;;;;;;12.35;11.32;;;6.70;99.90;;;;;;5072853;28;20497;-58
2023/05/02 00:28:36;;;;;;;12.38;11.18;;;6.70;99.90;;;;;;5075960;28;20044;-60
2023/05/02 00:31:03;;;;;;;11.88;10.77;;;6.60;99.90;;;;;;5075287;28;20051;-59
2023/05/02 00:33:29;;;;;;;11.32;10.43;;;6.60;99.90;;;;;;5069854;28;20028;-59
2023/05/02 00:35:54;;;;;;;13.57;12.27;;;6.60;99.90;;;;;;5076873;28;20024;-60
2023/05/02 00:38:20;;;;;;;13.00;11.35;;;6.50;99.90;;;;;;5077362;28;20090;-60
2023/05/02 00:40:48;;;;;;;13.15;11.70;;;6.60;99.90;;;;;;5070700;28;20017;-60
2023/05/02 00:43:15;;;;;;;14.93;12.55;;;6.60;99.90;;;;;;5068646;28;20024;-60
2023/05/02 00:45:45;;;;;;;14.63;13.23;;;6.60;99.90;;;;;;5072916;28;20561;-60
2023/05/02 00:48:11;;;;;;;15.60;14.15;;;6.60;99.90;;;;;;5072911;28;20048;-58
2023/05/02 00:50:41;;;;;;;15.45;13.95;;;6.60;99.90;;;;;;5073087;28;20055;-59
2023/05/02 00:53:09;;;;;;;15.57;14.13;;;6.60;99.90;;;;;;5072011;28;20040;-57
2023/05/02 00:55:35;;;;;;;16.60;14.60;;;6.60;99.90;;;;;;5077213;28;20408;-56
2023/05/02 00:58:05;;;;;;;16.40;14.80;;;6.60;99.90;;;;;;5069759;28;20056;-58
2023/05/02 01:00:40;;;;;;;16.45;14.73;;;6.70;99.90;;;;;;5075501;28;20059;-57
2023/05/02 01:03:19;;;;;;;18.95;15.27;;;6.70;99.90;;;;;;5070247;28;20036;-57
2023/05/02 01:06:06;;;;;;;16.00;14.32;;;6.70;99.90;;;;;;5072434;28;20035;-57
2023/05/02 01:08:44;;;;;;;15.15;13.75;;;6.70;99.90;;;;;;5072202;28;20031;-58
2023/05/02 01:11:24;;;;;;;18.17;14.00;;;6.70;99.90;;;;;;5074770;28;20120;-58
2023/05/02 01:13:52;;;;;;;14.82;13.30;;;6.70;99.90;;;;;;5072313;28;20052;-57
2023/05/02 01:16:19;;;;;;;14.45;13.02;;;6.70;99.90;;;;;;5070785;28;20027;-60
2023/05/02 01:18:47;;;;;;;16.40;13.68;;;6.70;99.90;;;;;;5072634;28;20048;-60
2023/05/02 01:21:13;;;;;;;12.60;11.43;;;6.70;99.90;;;;;;5073081;28;20028;-59
2023/05/02 01:24:05;;;;;;;11.02;10.00;;;6.60;99.90;;;;;;5070922;28;20040;-59
2023/05/02 01:26:53;;;;;;;8.02;7.32;;;6.50;99.90;;;;;;5073495;28;20037;-59
2023/05/02 01:29:21;;;;;;;9.93;9.02;;;6.40;99.90;;;;;;5061152;28;20037;-60
2023/05/02 01:31:49;;;;;;;9.48;8.60;;;6.40;99.90;;;;;;5076674;28;20020;-60
2023/05/02 01:34:17;;;;;;;26.52;11.98;;;6.30;99.90;;;;;;5076909;28;20111;-59
2023/05/02 01:36:46;;;;;;;12.30;11.15;;;6.20;99.90;;;;;;5076646;28;20037;-60
2023/05/02 01:39:23;;;;;;;13.32;11.60;;;6.10;99.90;;;;;;5059420;28;20033;-59
2023/05/02 01:41:51;;;;;;;17.55;11.63;;;6.10;99.90;;;;;;5076502;28;20821;-60
2023/05/02 01:44:19;;;;;;;11.45;10.45;;;6.10;99.90;;;;;;5076426;28;20044;-59
2023/05/02 01:46:47;;;;;;;10.27;9.38;;;6.00;99.90;;;;;;5075454;28;20024;-57
2023/05/02 01:49:12;;;;;;;8.07;7.38;;;6.00;99.90;;;;;;5078369;28;20043;-59
2023/05/02 01:51:49;;;;;;;8.50;7.72;;;5.90;99.90;;;;;;5077224;28;20029;-59
2023/05/02 01:54:16;;;;;;;7.85;7.15;;;5.80;99.90;;;;;;5077875;28;20123;-60
2023/05/02 01:56:43;;;;;;;9.07;8.27;;;5.80;99.90;;;;;;5077459;28;20016;-60
2023/05/02 01:59:11;;;;;;;16.95;10.05;;;5.70;99.90;;;;;;5062323;28;20039;-60
2023/05/02 02:01:39;;;;;;;11.65;10.65;;;5.80;99.90;;;;;;5059814;28;20519;-59
2023/05/02 02:04:07;;;;;;;11.80;10.48;;;5.80;99.90;;;;;;5076443;28;20027;-60
2023/05/02 02:06:34;;;;;;;20.77;11.85;;;5.80;99.90;;;;;;5079329;28;20032;-59
2023/05/02 02:09:00;;;;;;;42.42;12.07;;;5.80;99.90;;;;;;5078200;28;20028;-58
2023/05/02 02:11:36;;;;;;;34.92;12.35;;;5.80;99.90;;;;;;5076126;28;20115;-58
2023/05/02 02:14:10;;;;;;;53.38;12.52;;;5.80;99.90;;;;;;5076935;28;20032;-60
2023/05/02 02:16:40;;;;;;;44.10;12.65;;;5.80;99.90;;;;;;5073142;28;20024;-59
2023/05/02 02:19:09;;;;;;;22.67;12.73;;;5.80;99.90;;;;;;5071317;28;20040;-60
2023/05/02 02:21:37;;;;;;;32.53;11.23;;;5.90;99.90;;;;;;5073687;28;20741;-60
2023/05/02 02:24:05;;;;;;;59.35;10.52;;;5.80;99.90;;;;;;5053140;28;20116;-60
2023/05/02 02:26:31;;;;;;;56.58;9.60;;;5.80;99.90;;;;;;5074539;28;20036;-60
2023/05/02 02:28:58;;;;;;;61.78;9.30;;;5.70;99.90;;;;;;5073334;28;21697;-60
2023/05/02 02:31:30;;;;;;;44.45;8.60;;;5.60;99.90;;;;;;5075527;28;20456;-60
2023/05/02 02:33:56;;;;;;;28.48;7.75;;;5.50;99.90;;;;;;5073904;28;20365;-59
2023/05/02 02:36:28;;;;;;;14.00;8.00;;;5.50;99.90;;;;;;5078650;28;20043;-60
2023/05/02 02:39:22;;;;;;;9.13;8.32;;;5.50;99.90;;;;;;5074428;28;20107;-59
2023/05/02 02:42:08;;;;;;;9.57;8.68;;;5.50;99.90;;;;;;5070056;28;20100;-59
2023/05/02 02:44:46;;;;;;;11.63;9.38;;;5.60;99.90;;;;;;5076897;28;20544;-59
2023/05/02 02:47:22;;;;;;;10.30;9.23;;;5.60;99.90;;;;;;5069190;28;20047;-59
2023/05/02 02:50:18;;;;;;;10.63;9.57;;;5.70;99.90;;;;;;5072007;28;20032;-58
2023/05/02 02:52:54;;;;;;;12.60;11.50;;;5.70;99.90;;;;;;5070185;28;20032;-59
2023/05/02 02:55:50;;;;;;;12.13;10.93;;;5.80;99.90;;;;;;5072441;28;20551;-60
2023/05/02 02:58:37;;;;;;;15.02;10.63;;;5.80;99.90;;;;;;5072902;28;20047;-59
2023/05/02 03:01:09;;;;;;;10.20;9.30;;;5.80;99.90;;;;;;5076353;28;20091;-58
2023/05/02 03:03:37;;;;;;;11.40;10.38;;;5.80;99.90;;;;;;5075246;28;20048;-58
2023/05/02 03:06:03;;;;;;;12.45;11.25;;;5.80;99.90;;;;;;5053686;28;20056;-60
2023/05/02 03:08:39;;;;;;;12.63;11.38;;;5.90;99.90;;;;;;5079951;28;20058;-59
2023/05/02 03:11:04;;;;;;;11.98;10.88;;;5.90;99.90;;;;;;5072892;28;20027;-59
2023/05/02 03:13:30;;;;;;;11.38;10.38;;;5.90;99.90;;;;;;5076629;28;20032;-60
2023/05/02 03:16:34;;;;;;;13.15;11.75;;;6.00;99.90;;;;;;5079590;28;20055;-61
2023/05/02 03:19:00;;;;;;;12.27;11.23;;;6.00;99.90;;;;;;5073101;28;20034;-60
2023/05/02 03:21:25;;;;;;;14.45;11.93;;;6.00;99.90;;;;;;5076269;28;20051;-58
2023/05/02 03:23:51;;;;;;;14.40;12.57;;;6.00;99.90;;;;;;5075197;28;20046;-58
2023/05/02 03:26:17;;;;;;;14.13;12.73;;;6.10;99.90;;;;;;5075166;28;20050;-56
2023/05/02 03:28:45;;;;;;;12.00;10.88;;;6.10;99.90;;;;;;5073563;28;20435;-59
2023/05/02 03:31:12;;;;;;;14.68;11.13;;;6.10;99.90;;;;;;5074549;28;20024;-60
2023/05/02 03:33:38;;;;;;;12.88;11.57;;;6.10;99.90;;;;;;5075540;28;20035;-59
2023/05/02 03:36:04;;;;;;;12.82;11.63;;;6.10;99.90;;;;;;5074541;28;20024;-60
2023/05/02 03:38:29;;;;;;;12.45;11.35;;;6.10;99.90;;;;;;5075278;28;20115;-58
2023/05/02 03:40:58;;;;;;;12.25;11.07;;;6.10;99.90;;;;;;5074794;28;20017;-58
2023/05/02 03:43:24;;;;;;;12.50;11.27;;;6.10;99.90;;;;;;5070772;28;20048;-57
2023/05/02 03:45:50;;;;;;;11.98;10.98;;;6.10;99.90;;;;;;5072392;28;20061;-60
2023/05/02 03:48:15;;;;;;;12.40;11.20;;;6.20;99.90;;;;;;5072060;28;20475;-60
2023/05/02 03:50:42;;;;;;;12.25;11.05;;;6.20;99.90;;;;;;5072342;28;20487;-60
2023/05/02 03:53:08;;;;;;;11.63;10.52;;;6.20;99.90;;;;;;5068093;28;20033;-61
2023/05/02 03:55:42;;;;;;;11.57;10.55;;;6.30;99.90;;;;;;5069449;28;20547;-60
2023/05/02 03:58:09;;;;;;;13.57;11.00;;;6.30;99.90;;;;;;5073047;28;20672;-58
2023/05/02 04:00:34;;;;;;;11.77;10.57;;;6.30;99.90;;;;;;5077844;28;20086;-59
2023/05/02 04:03:01;;;;;;;15.93;11.45;;;6.20;99.90;;;;;;5073319;28;20035;-60
2023/05/02 04:05:27;;;;;;;11.05;9.43;;;6.30;99.90;;;;;;5072760;28;20029;-60
2023/05/02 04:07:54;;;;;;;11.88;10.35;;;6.30;99.90;;;;;;5056628;28;20024;-59
2023/05/02 04:10:19;;;;;;;14.20;12.63;;;6.30;99.90;;;;;;5057935;28;20021;-60
2023/05/02 04:12:45;;;;;;;11.93;10.80;;;6.30;99.90;;;;;;5071353;28;20025;-57
2023/05/02 04:15:11;;;;;;;13.68;11.65;;;6.30;99.90;;;;;;5075513;28;20032;-58
2023/05/02 04:17:37;;;;;;;12.73;11.57;;;6.40;99.90;;;;;;5058016;28;20031;-61
2023/05/02 04:20:04;;;;;;;16.83;11.80;;;6.40;99.90;;;;;;5074434;28;20511;-58
2023/05/02 04:22:30;;;;;;;15.48;11.65;;;6.40;99.90;;;;;;5073369;28;20033;-59
2023/05/02 04:24:56;;;;;;;13.30;12.00;;;6.40;99.90;;;;;;5076083;28;20033;-60
2023/05/02 04:27:21;;;;;;;16.13;13.68;;;6.40;99.90;;;;;;5067644;28;20033;-60
2023/05/02 04:29:48;;;;;;;17.42;13.05;;;6.50;99.90;;;;;;5069338;28;20060;-57
2023/05/02 04:32:14;;;;;;;29.25;14.00;;;6.50;99.90;;;;;;5075348;28;20032;-57
2023/05/02 04:34:40;;;;;;;23.67;13.90;;;6.40;99.90;;;;;;5073370;28;20527;-60
2023/05/02 04:37:06;;;;;;;29.23;14.43;;;6.50;99.90;;;;;;5074750;28;20008;-59
2023/05/02 04:39:32;;;;;;;24.92;13.57;;;6.50;99.90;;;;;;5073207;28;20060;-59
2023/05/02 04:41:58;;;;;;;37.63;14.70;;;6.60;99.90;;;;;;5070190;28;20480;-59
2023/05/02 04:44:24;;;;;;;53.30;16.40;;;6.60;99.90;;;;;;5074996;28;20043;-60
2023/05/02 04:46:49;;;;;;;34.65;14.13;;;6.60;99.90;;;;;;5070922;28;20024;-60
2023/05/02 04:49:15;;;;;;;44.55;15.23;;;6.70;99.90;;;;;;5072481;28;20032;-61
2023/05/02 04:51:41;;;;;;;57.65;15.35;;;6.70;99.90;;;;;;5072639;28;20028;-60
2023/05/02 04:54:06;;;;;;;52.60;17.90;;;6.80;99.90;;;;;;5040826;28;20070;-61
2023/05/02 04:56:32;;;;;;;37.05;15.18;;;6.80;99.90;;;;;;5077003;28;20058;-57
2023/05/02 04:58:58;;;;;;;39.88;15.48;;;6.90;99.90;;;;;;5073473;28;20407;-59
2023/05/02 05:01:26;;;;;;;64.97;18.60;;;6.90;99.90;;;;;;5065656;28;20028;-59
2023/05/02 05:03:52;;;;;;;82.50;17.85;;;7.00;99.90;;;;;;5058683;28;20428;-60
2023/05/02 05:06:27;;;;;;;45.88;18.05;;;7.00;99.90;;;;;;5070159;28;20047;-61
2023/05/02 05:08:52;;;;;;;53.38;17.80;;;7.10;99.90;;;;;;5071477;28;20074;-60
2023/05/02 05:11:18;;;;;;;34.15;16.67;;;7.10;99.90;;;;;;5066643;28;20033;-60
2023/05/02 05:13:43;;;;;;;40.10;16.08;;;7.10;99.90;;;;;;5071541;28;21395;-60
2023/05/02 05:16:09;;;;;;;28.35;14.82;;;7.20;99.90;;;;;;5075521;28;20503;-60
2023/05/02 05:18:39;;;;;;;30.25;16.70;;;7.20;99.90;;;;;;5073549;28;20125;-62
2023/05/02 05:21:08;;;;;;;35.58;17.35;;;7.30;99.90;;;;;;5070052;28;20496;-60
2023/05/02 05:23:35;;;;;;;34.67;16.60;;;7.30;99.90;;;;;;5070276;28;20036;-60
2023/05/02 05:26:12;;;;;;;35.05;17.35;;;7.40;99.90;;;;;;5075024;28;20148;-58
2023/05/02 05:28:38;;;;;;;36.13;17.67;;;7.40;99.90;;;;;;5074946;28;20016;-57
2023/05/02 05:31:07;;;;;;;38.70;19.55;;;7.50;99.90;;;;;;5057064;28;20020;-58
2023/05/02 05:33:34;;;;;;;46.38;20.33;;;7.60;99.90;;;;;;5073498;28;20099;-58
2023/05/02 05:36:16;;;;;;;37.95;20.52;;;7.70;99.90;;;;;;5073437;28;20028;-58
2023/05/02 05:38:42;;;;;;;34.10;19.35;;;7.80;99.90;;;;;;5073793;28;20035;-58
2023/05/02 05:41:07;;;;;;;35.20;19.65;;;7.90;99.90;;;;;;5073944;28;20028;-58
2023/05/02 05:43:34;;;;;;;39.03;19.65;;;8.00;99.90;;;;;;5073063;28;20028;-56
2023/05/02 05:46:00;;;;;;;28.95;18.40;;;8.00;99.90;;;;;;5072112;28;20037;-59
2023/05/02 05:48:25;;;;;;;34.65;19.05;;;8.10;99.90;;;;;;5069296;28;20036;-59
2023/05/02 05:50:51;;;;;;;31.38;17.98;;;8.10;99.90;;;;;;5072798;28;20039;-59
2023/05/02 05:53:18;;;;;;;35.25;18.58;;;8.20;99.90;;;;;;5071887;28;20048;-56
2023/05/02 05:55:44;;;;;;;37.25;17.77;;;8.20;99.90;;;;;;5073786;28;20400;-59
2023/05/02 05:58:10;;;;;;;27.98;18.13;;;8.30;99.90;;;;;;5075040;28;20047;-58
2023/05/02 06:00:37;;;;;;;24.83;17.13;;;8.30;99.90;;;;;;5072676;28;20496;-59
2023/05/02 06:03:03;;;;;;;28.58;16.17;;;8.40;99.90;;;;;;5071911;28;20032;-61
2023/05/02 06:05:29;;;;;;;22.05;15.73;;;8.50;99.90;;;;;;5067696;28;20044;-61
2023/05/02 06:07:56;;;;;;;20.83;14.88;;;8.70;99.90;;;;;;5067450;28;20572;-58
2023/05/02 06:10:22;;;;;;;15.63;13.63;;;8.80;99.90;;;;;;5070927;28;20576;-59
2023/05/02 06:12:47;;;;;;;17.23;14.27;;;8.80;99.90;;;;;;5074705;28;20024;-60
2023/05/02 06:15:13;;;;;;;25.58;16.00;;;8.90;99.90;;;;;;5074689;28;20921;-59
2023/05/02 06:17:39;;;;;;;23.08;14.75;;;9.00;99.90;;;;;;5077672;28;20049;-60
2023/05/02 06:20:06;;;;;;;21.73;15.45;;;9.10;99.90;;;;;;5078104;28;20543;-60
2023/05/02 06:22:31;;;;;;;61.65;27.70;;;9.10;99.90;;;;;;5055686;28;20484;-59
2023/05/02 06:24:57;;;;;;;67.32;32.30;;;9.20;99.90;;;;;;5073999;28;20028;-59
2023/05/02 06:27:22;;;;;;;49.90;27.27;;;9.30;99.90;;;;;;5075804;28;20047;-59
2023/05/02 06:29:52;;;;;;;39.20;21.88;;;9.40;99.90;;;;;;5072291;28;20048;-60
2023/05/02 06:32:17;;;;;;;39.63;21.15;;;9.50;99.90;;;;;;5075921;28;20044;-58
2023/05/02 06:34:43;;;;;;;53.28;26.30;;;9.60;99.90;;;;;;5078290;28;20024;-59
2023/05/02 06:37:09;;;;;;;47.83;25.88;;;9.70;99.90;;;;;;5075419;28;20039;-59
2023/05/02 06:39:35;;;;;;;55.28;28.48;;;9.80;99.90;;;;;;5073558;28;20036;-59
2023/05/02 06:42:01;;;;;;;46.95;26.45;;;9.90;99.90;;;;;;5074672;28;20065;-59
2023/05/02 06:44:27;;;;;;;39.67;24.10;;;9.90;99.90;;;;;;5077701;28;20072;-60
2023/05/02 06:46:54;;;;;;;38.83;21.98;;;9.90;99.90;;;;;;5075708;28;20028;-57
2023/05/02 06:49:23;;;;;;;28.35;19.98;;;10.00;99.90;;;;;;5056162;28;20036;-60
2023/05/02 06:51:48;;;;;;;40.35;26.10;;;10.00;99.90;;;;;;5073871;28;20110;-60
2023/05/02 06:54:14;;;;;;;26.48;19.20;;;10.20;99.90;;;;;;5074766;28;20067;-61
2023/05/02 06:56:41;;;;;;;21.05;18.17;;;10.40;99.90;;;;;;5075703;28;20037;-58
2023/05/02 06:59:06;;;;;;;24.58;18.50;;;10.50;99.90;;;;;;5076265;28;20033;-59
2023/05/02 07:01:32;;;;;;;28.60;18.30;;;10.60;99.90;;;;;;5078134;28;20029;-60
2023/05/02 07:03:58;;;;;;;19.75;17.60;;;10.50;99.90;;;;;;5077028;28;20016;-60
2023/05/02 07:06:23;;;;;;;18.83;16.45;;;10.50;99.90;;;;;;5076640;28;20455;-61
2023/05/02 07:08:49;;;;;;;20.85;17.23;;;10.40;99.90;;;;;;5076885;28;20025;-61
2023/05/02 07:11:15;;;;;;;26.02;18.70;;;10.40;99.90;;;;;;5075597;28;20508;-61
2023/05/02 07:13:40;;;;;;;29.55;18.27;;;10.30;99.90;;;;;;5075983;28;20497;-59
2023/05/02 07:16:06;;;;;;;33.55;18.98;;;10.20;99.90;;;;;;5075196;28;20106;-59
2023/05/02 07:18:32;;;;;;;23.13;18.98;;;10.10;99.90;;;;;;5073002;28;20064;-56
2023/05/02 07:20:58;;;;;;;29.52;19.83;;;10.00;99.90;;;;;;5074128;28;20103;-59
2023/05/02 07:23:24;;;;;;;29.55;19.38;;;10.00;99.90;;;;;;5073735;28;20032;-60
2023/05/02 07:25:49;;;;;;;30.67;18.48;;;9.90;99.90;;;;;;5070771;28;20048;-60
2023/05/02 07:28:15;;;;;;;25.52;19.30;;;9.80;99.90;;;;;;5078331;28;20016;-60
2023/05/02 07:30:41;;;;;;;34.35;20.23;;;9.80;99.90;;;;;;5073936;28;20051;-57
2023/05/02 07:33:06;;;;;;;28.85;20.17;;;9.80;99.90;;;;;;5056061;28;20059;-59
2023/05/02 07:35:32;;;;;;;32.08;22.23;;;9.70;99.90;;;;;;5077540;28;20405;-60
2023/05/02 07:37:58;;;;;;;36.83;24.58;;;9.60;99.90;;;;;;5077789;28;20043;-60
2023/05/02 07:40:23;;;;;;;40.13;24.40;;;9.50;99.90;;;;;;5070578;28;20426;-61
2023/05/02 07:42:49;;;;;;;39.28;24.73;;;9.40;99.90;;;;;;5074205;28;20041;-58
2023/05/02 07:45:15;;;;;;;35.47;23.80;;;9.30;99.90;;;;;;5072036;28;20188;-60
2023/05/02 07:47:41;;;;;;;41.35;24.35;;;9.20;99.90;;;;;;5071666;28;20127;-58
2023/05/02 07:50:07;;;;;;;40.95;25.02;;;9.20;99.90;;;;;;5071598;28;20033;-58
2023/05/02 07:52:33;;;;;;;39.53;25.17;;;9.20;99.90;;;;;;5072216;28;20051;-58
2023/05/02 07:54:59;;;;;;;38.72;25.75;;;9.30;99.90;;;;;;5076870;28;20113;-58
2023/05/02 07:57:25;;;;;;;37.58;24.45;;;9.40;99.90;;;;;;5075930;28;20074;-59
2023/05/02 07:59:51;;;;;;;39.75;24.35;;;9.50;99.90;;;;;;5074156;28;20071;-59
2023/05/02 08:02:18;;;;;;;40.63;26.58;;;9.70;99.90;;;;;;5073526;28;20033;-59
2023/05/02 08:04:45;;;;;;;32.65;23.58;;;9.90;99.90;;;;;;5078424;28;20028;-59
2023/05/02 08:07:11;;;;;;;37.83;23.45;;;10.10;99.90;;;;;;5069483;28;20570;-59
2023/05/02 08:09:36;;;;;;;27.48;22.02;;;10.30;99.90;;;;;;5074932;28;20051;-59
2023/05/02 08:12:02;;;;;;;29.45;21.40;;;10.50;99.90;;;;;;5072610;28;20024;-59
2023/05/02 08:14:28;;;;;;;36.10;22.45;;;10.70;99.90;;;;;;5073591;28;20544;-57
2023/05/02 08:16:53;;;;;;;28.75;20.42;;;10.90;99.90;;;;;;5071748;28;20092;-61
2023/05/02 08:19:19;;;;;;;24.80;17.95;;;11.20;99.90;;;;;;5072362;28;20410;-60
2023/05/02 08:21:45;;;;;;;21.70;18.73;;;11.40;99.90;;;;;;5074034;28;20036;-60
2023/05/02 08:24:10;;;;;;;19.17;17.17;;;11.60;99.90;;;;;;5075833;28;20041;-60
2023/05/02 08:26:36;;;;;;;20.90;17.13;;;11.80;99.90;;;;;;5075418;28;20485;-58
2023/05/02 08:29:03;;;;;;;17.40;15.80;;;12.00;99.90;;;;;;5070804;28;20038;-60
2023/05/02 08:31:29;;;;;;;18.13;15.85;;;12.10;99.90;;;;;;5073671;28;20078;-60
2023/05/02 08:33:55;;;;;;;15.25;14.00;;;12.20;99.90;;;;;;5074131;28;20028;-61
2023/05/02 08:36:20;;;;;;;16.83;15.15;;;12.20;99.90;;;;;;5048544;28;20037;-59
2023/05/02 08:38:47;;;;;;;16.45;14.85;;;12.30;99.90;;;;;;5076923;28;20115;-61
2023/05/02 08:41:15;;;;;;;14.48;13.18;;;12.40;99.90;;;;;;5073885;28;20089;-61
2023/05/02 08:43:41;;;;;;;14.73;13.52;;;12.50;99.90;;;;;;5073184;28;20103;-60
2023/05/02 08:46:09;;;;;;;13.88;12.68;;;12.60;99.90;;;;;;5076822;28;20094;-58
2023/05/02 08:48:36;;;;;;;14.63;13.20;;;12.80;99.90;;;;;;5079535;28;20032;-57
2023/05/02 08:51:03;;;;;;;11.80;10.90;;;12.90;99.90;;;;;;5077315;28;20037;-62
2023/05/02 08:53:34;;;;;;;12.13;11.13;;;13.00;99.90;;;;;;5073968;28;20082;-59
2023/05/02 08:56:00;;;;;;;11.27;10.38;;;13.10;99.90;;;;;;5056463;28;20033;-57
2023/05/02 08:58:26;;;;;;;17.17;10.93;;;13.10;99.90;;;;;;5070846;28;20039;-57
2023/05/02 09:00:54;;;;;;;12.32;11.20;;;13.30;99.90;;;;;;5073561;28;20024;-60
2023/05/02 09:03:33;;;;;;;12.32;11.32;;;13.70;99.90;;;;;;5076935;28;20032;-60
2023/05/02 09:06:11;;;;;;;10.70;9.80;;;14.10;99.90;;;;;;5075017;28;20488;-58
2023/05/02 09:08:38;;;;;;;11.20;10.30;;;14.60;99.90;;;;;;5078133;28;20492;-58
2023/05/02 09:11:04;;;;;;;10.18;9.35;;;15.20;99.90;;;;;;5069922;28;20444;-59
2023/05/02 09:13:41;;;;;;;10.60;9.57;;;15.50;99.90;;;;;;5069259;28;20054;-59
2023/05/02 09:16:10;;;;;;;9.32;8.60;;;15.90;99.90;;;;;;5054702;28;20056;-60
2023/05/02 09:18:43;;;;;;;9.85;9.05;;;16.50;99.90;;;;;;5068290;28;20493;-61
2023/05/02 09:21:20;;;;;;;8.70;8.10;;;16.70;99.90;;;;;;5070917;28;20043;-58
2023/05/02 09:23:47;;;;;;;9.63;8.88;;;17.20;99.90;;;;;;5074207;28;20036;-61
2023/05/02 09:26:20;;;;;;;8.82;8.13;;;17.60;99.90;;;;;;5075497;28;20827;-60
2023/05/02 09:28:47;;;;;;;9.30;8.60;;;17.60;99.90;;;;;;5070274;28;20786;-61
2023/05/02 09:31:16;;;;;;;10.23;8.40;;;17.60;99.90;;;;;;5072106;28;20024;-59
2023/05/02 09:33:41;;;;;;;9.07;8.27;;;17.90;99.90;;;;;;5073164;28;20032;-60
2023/05/02 09:36:09;;;;;;;8.38;7.72;;;18.10;99.90;;;;;;5074635;28;20423;-61
2023/05/02 09:38:35;;;;;;;9.38;8.68;;;18.30;99.90;;;;;;5073821;28;20028;-60
2023/05/02 09:41:02;;;;;;;8.75;8.05;;;18.60;99.90;;;;;;5073042;28;20024;-60
2023/05/02 09:43:28;;;;;;;12.82;11.82;;;18.90;99.90;;;;;;5075677;28;20496;-60
2023/05/02 09:46:01;;;;;;;8.93;8.23;;;19.20;99.90;;;;;;5070443;28;20744;-61
2023/05/02 09:48:28;;;;;;;8.85;8.15;;;19.00;99.90;;;;;;5072340;28;20047;-60
2023/05/02 09:50:53;;;;;;;8.55;7.95;;;18.60;99.90;;;;;;5075836;28;20036;-58
2023/05/02 09:53:20;;;;;;;8.98;8.23;;;18.80;99.90;;;;;;5075588;28;20036;-55
2023/05/02 09:55:46;;;;;;;7.97;7.35;;;19.00;99.90;;;;;;5075687;28;20035;-55
2023/05/02 09:58:22;;;;;;;8.50;7.82;;;19.00;99.90;;;;;;5062784;28;20025;-57
2023/05/02 10:00:52;;;;;;;7.93;7.13;;;18.80;99.90;;;;;;5075174;28;20032;-56
2023/05/02 10:03:19;;;;;;;9.15;8.35;;;18.90;99.90;;;;;;5078148;28;20032;-57
2023/05/02 10:05:46;;;;;;;8.43;7.72;;;18.70;99.90;;;;;;5078315;28;20040;-57
2023/05/02 10:08:13;;;;;;;8.35;7.75;;;18.50;99.90;;;;;;5076974;28;20035;-56
2023/05/02 10:10:43;;;;;;;9.10;8.10;;;18.20;99.90;;;;;;5076381;28;20024;-56
2023/05/02 10:13:12;;;;;;;8.65;8.05;;;17.90;99.90;;;;;;5072667;28;20028;-55
2023/05/02 10:15:43;;;;;;;8.13;7.53;;;17.80;99.90;;;;;;5070444;28;20021;-56
2023/05/02 10:18:13;;;;;;;;;;;17.70;99.90;;;;;;5074621;28;20083;-56
2023/05/02 10:20:48;;;;;;;9.15;8.40;;;17.70;99.90;;;;;;5078683;28;20031;-55
2023/05/02 10:23:17;;;;;;;8.65;8.05;;;17.70;99.90;;;;;;5059004;28;20455;-56
2023/05/02 10:25:46;;;;;;;8.80;8.05;;;17.90;99.90;;;;;;5075826;28;20037;-57
2023/05/02 10:28:16;;;;;;;8.18;7.47;;;18.10;99.90;;;;;;5077234;28;20044;-55
2023/05/02 10:30:43;;;;;;;8.52;7.65;;;18.00;99.90;;;;;;5056050;28;20106;-56
2023/05/02 10:33:12;;;;;;;8.02;7.35;;;18.00;99.90;;;;;;5078720;28;20130;-57
2023/05/02 10:35:42;;;;;;;6.57;6.07;;;18.00;99.90;;;;;;5079508;28;20118;-56
2023/05/02 10:38:09;;;;;;;7.93;7.15;;;18.10;99.90;;;;;;5072141;28;20036;-57
2023/05/02 10:40:35;;;;;;;7.22;6.55;;;18.10;99.90;;;;;;5076145;28;20071;-55
2023/05/02 10:43:03;;;;;;;6.03;5.53;;;18.50;99.90;;;;;;5060681;28;20036;-56
2023/05/02 10:45:35;;;;;;;6.95;5.03;;;18.90;99.90;;;;;;5057102;28;20032;-59
2023/05/02 10:48:15;;;;;;;4.85;4.15;;;19.50;99.90;;;;;;5055717;28;20040;-56
2023/05/02 10:50:52;;;;;;;8.98;3.47;;;20.30;90.90;;;;;;5075144;28;20036;-58
2023/05/02 10:53:29;;;;;;;3.90;2.63;;;20.10;91.90;;;;;;5076783;28;20052;-55
2023/05/02 10:56:14;;;;;;;3.03;2.78;;;19.90;99.90;;;;;;5080528;28;20127;-56
2023/05/02 10:58:42;;;;;;;3.40;3.00;;;20.20;99.90;;;;;;5077797;28;20025;-62
2023/05/02 11:01:30;;;;;;;3.13;2.58;;;20.30;82.00;;;;;;5063278;28;20090;-58
2023/05/02 11:04:04;;;;;;;4.18;2.97;;;20.40;78.80;;;;;;5080604;28;20024;-55
2023/05/02 11:06:35;;;;;;;6.45;3.15;;;20.30;73.00;;;;;;5082572;28;20627;-57
2023/05/02 11:09:17;;;;;;;4.70;3.33;;;20.40;93.80;;;;;;5076460;28;20602;-56
2023/05/02 11:11:48;;;;;;;3.88;3.20;;;20.60;84.80;;;;;;5071120;28;20041;-58
2023/05/02 11:14:29;;;;;;;;;;;20.70;83.00;;;;;;5074109;28;20059;-57
2023/05/02 11:17:04;;;;;;;;;;;20.70;80.10;;;;;;5074039;28;19913;-56
2023/05/02 11:19:55;;;;;;;4.03;3.13;;;20.40;77.20;;;;;;5079322;28;19908;-55
2023/05/02 11:22:23;;;;;;;3.72;3.28;;;20.10;91.80;;;;;;5050825;28;20598;-57
2023/05/02 11:24:50;;;;;;;3.75;3.22;;;20.00;83.00;;;;;;5059275;28;20032;-58
2023/05/02 11:27:32;;;;;;;4.70;3.85;;;19.80;81.00;;;;;;5071412;28;20041;-56
2023/05/02 11:29:58;;;;;;;3.88;3.17;;;19.50;87.60;;;;;;5077708;28;20050;-56
2023/05/02 11:32:46;;;;;;;4.45;3.35;;;19.10;91.10;;;;;;5067540;28;20395;-58
2023/05/02 11:35:20;;;;;;;4.03;3.67;;;18.80;91.80;;;;;;5073400;28;20118;-55
2023/05/02 11:38:10;;;;;;;4.15;3.45;;;18.40;98.40;;;;;;5072524;28;20035;-55
2023/05/02 11:40:36;;;;;;;4.07;3.63;;;18.20;99.90;;;;;;5060600;28;20458;-57
2023/05/02 11:43:13;;;;;;;7.00;4.07;;;17.90;99.90;;;;;;5076303;28;20036;-55
2023/05/02 11:45:41;;;;;;;5.32;3.63;;;17.60;95.50;;;;;;5073877;28;20024;-55
2023/05/02 11:48:07;;;;;;;7.10;5.50;;;17.20;99.00;;;;;;5070931;28;20078;-56
2023/05/02 11:50:44;;;;;;;6.85;4.18;;;16.90;99.90;;;;;;5069225;28;20443;-55
2023/05/02 11:53:15;;;;;;;4.95;4.07;;;16.60;99.90;;;;;;5075777;28;20047;-54
2023/05/02 11:56:03;;;;;;;9.35;5.28;;;16.20;99.90;;;;;;5052968;28;20515;-55
2023/05/02 11:58:34;;;;;;;4.80;3.80;;;15.90;99.90;;;;;;5074678;28;20032;-56
2023/05/02 12:01:20;;;;;;;9.48;3.72;;;15.70;99.90;;;;;;5077699;28;20020;-55
2023/05/02 12:03:48;;;;;;;6.80;3.72;;;15.50;99.90;;;;;;5044702;28;20028;-55
2023/05/02 12:06:17;;;;;;;6.57;4.25;;;15.50;99.90;;;;;;5073739;28;20040;-56
2023/05/02 12:08:44;;;;;;;4.82;3.92;;;15.40;99.90;;;;;;5074683;28;20063;-56
2023/05/02 12:11:14;;;;;;;4.07;3.67;;;15.50;99.90;;;;;;5055077;28;20040;-56
2023/05/02 12:13:48;;;;;;;5.10;4.35;;;15.80;99.90;;;;;;5067778;28;20354;-55
2023/05/02 12:16:15;;;;;;;5.45;4.20;;;16.00;99.90;;;;;;5074287;28;20028;-56
2023/05/02 12:18:41;;;;;;;5.15;4.50;;;16.40;99.90;;;;;;5070192;28;20613;-55
2023/05/02 12:21:08;;;;;;;5.85;3.85;;;17.00;99.90;;;;;;5072767;28;20072;-56
2023/05/02 12:23:35;;;;;;;3.58;3.20;;;17.60;99.90;;;;;;5060215;28;20550;-57
2023/05/02 12:26:16;;;;;;;4.05;3.47;;;18.10;99.90;;;;;;5054343;28;20397;-56
2023/05/02 12:28:49;;;;;;;;;;;18.40;97.70;;;;;;5075704;28;20390;-56
2023/05/02 12:31:15;;;;;;;3.55;3.25;;;18.40;99.90;;;;;;5076135;28;19908;-55
2023/05/02 12:33:42;;;;;;;3.95;3.65;;;18.10;99.90;;;;;;5077224;28;20033;-56
2023/05/02 12:36:17;;;;;;;5.20;4.35;;;17.80;99.90;;;;;;5048349;28;20032;-59
2023/05/02 12:38:53;;;;;;;6.30;5.80;;;17.10;99.90;;;;;;5060452;28;20048;-56
2023/05/02 12:41:38;;;;;;;8.05;6.95;;;16.30;99.90;;;;;;5051379;28;20029;-60
2023/05/02 12:44:07;;;;;;;7.43;6.82;;;15.60;99.90;;;;;;5078639;28;20028;-58
2023/05/02 12:46:33;;;;;;;6.57;6.03;;;15.40;99.90;;;;;;5064230;28;20020;-58
2023/05/02 12:49:09;;;;;;;7.50;6.80;;;15.50;99.90;;;;;;5079530;28;20086;-58
2023/05/02 12:51:36;;;;;;;7.20;6.57;;;15.80;99.90;;;;;;5072611;28;20021;-56